Time;durP1;ratioP1;P1;durP2;ratioP2;P2;SDS_P1;SDS_P2;PMS_P1;PMS_P2;Temp;Humidity;BMP_temperature;BMP_pressure;BME280_temperature;BME280_humidity;BME280_pressure;Samples;Min_cycle;Max_cycle;Signal;HPM_P1;HPM_P2
2023/06/18 00:00:31;;;;;;;40.55;21.20;;;;;;;;;;4844368;29;20036;-94
2023/06/18 00:03:07;;;;;;;45.13;22.00;;;;;;;;;;4857581;29;20089;-95
2023/06/18 00:05:40;;;;;;;48.05;24.27;;;;;;;;;;4875730;29;20112;-94
2023/06/18 00:08:06;;;;;;;43.28;23.35;;;;;;;;;;4845255;29;20753;-94
2023/06/18 00:10:32;;;;;;;41.95;22.27;;;;;;;;;;4848514;29;20048;-95
2023/06/18 00:13:02;;;;;;;45.92;23.67;;;;;;;;;;4853182;29;20098;-94
2023/06/18 00:15:28;;;;;;;47.92;22.10;;;;;;;;;;4856228;29;20033;-94
2023/06/18 00:17:55;;;;;;;41.40;23.70;;;;;;;;;;4866969;29;20198;-94
2023/06/18 00:20:21;;;;;;;47.75;22.98;;;;;;;;;;4845623;29;20064;-95
2023/06/18 00:22:53;;;;;;;44.58;23.95;;;;;;;;;;4865151;29;20802;-95
2023/06/18 00:25:19;;;;;;;54.42;24.23;;;;;;;;;;4848958;29;20029;-95
2023/06/18 00:27:49;;;;;;;47.63;23.92;;;;;;;;;;4857992;29;20041;-95
2023/06/18 00:33:03;;;;;;;44.85;22.33;;;;;;;;;;4860683;29;20045;-96
2023/06/18 00:35:31;;;;;;;50.40;23.67;;;;;;;;;;4843842;29;20491;-95
2023/06/18 00:37:59;;;;;;;55.90;26.00;;;;;;;;;;4869848;29;20029;-95
2023/06/18 00:40:25;;;;;;;48.35;23.63;;;;;;;;;;4848078;29;20040;-95
2023/06/18 00:42:52;;;;;;;49.70;23.73;;;;;;;;;;4870815;29;20045;-95
2023/06/18 00:45:22;;;;;;;49.75;24.10;;;;;;;;;;4862347;29;20540;-94
2023/06/18 00:47:48;;;;;;;46.63;23.33;;;;;;;;;;4841726;29;20058;-94
2023/06/18 00:50:18;;;;;;;47.80;22.73;;;;;;;;;;4845100;29;20051;-95
2023/06/18 00:52:49;;;;;;;52.22;24.17;;;;;;;;;;4863310;29;20033;-92
2023/06/18 00:55:20;;;;;;;44.72;24.00;;;;;;;;;;4853604;29;20143;-94
2023/06/18 00:57:59;;;;;;;48.47;24.13;;;;;;;;;;4860261;29;20124;-94
2023/06/18 01:00:25;;;;;;;49.88;24.50;;;;;;;;;;4859417;29;20508;-95
2023/06/18 01:02:55;;;;;;;51.50;24.52;;;;;;;;;;4857905;29;20044;-92
2023/06/18 01:05:23;;;;;;;46.55;23.52;;;;;;;;;;4867301;29;20453;-94
2023/06/18 01:07:50;;;;;;;50.17;22.25;;;;;;;;;;4870630;29;20037;-94
2023/06/18 01:10:28;;;;;;;49.58;24.45;;;;;;;;;;4864500;29;20659;-94
2023/06/18 01:12:55;;;;;;;47.38;22.80;;;;;;;;;;4840041;29;20045;-94
2023/06/18 01:15:22;;;;;;;49.78;22.85;;;;;;;;;;4856614;29;20029;-95
2023/06/18 01:18:01;;;;;;;46.50;23.08;;;;;;;;;;4861003;29;20049;-94
2023/06/18 01:20:31;;;;;;;46.97;23.25;;;;;;;;;;4871417;29;20032;-94
2023/06/18 01:23:14;;;;;;;50.05;22.65;;;;;;;;;;4851369;29;20041;-95
2023/06/18 01:25:43;;;;;;;46.55;23.08;;;;;;;;;;4859345;29;20161;-94
2023/06/18 01:28:10;;;;;;;49.42;24.00;;;;;;;;;;4857857;29;20395;-94
2023/06/18 01:30:37;;;;;;;49.45;22.38;;;;;;;;;;4836974;29;20131;-95
2023/06/18 01:33:12;;;;;;;44.17;21.98;;;;;;;;;;4855689;29;20033;-94
2023/06/18 01:35:38;;;;;;;48.17;22.13;;;;;;;;;;4852534;29;20510;-95
2023/06/18 01:38:17;;;;;;;49.72;24.52;;;;;;;;;;4834678;29;20332;-94
2023/06/18 01:40:55;;;;;;;51.78;23.77;;;;;;;;;;4857867;29;20442;-95
2023/06/18 01:43:21;;;;;;;51.13;24.08;;;;;;;;;;4848031;29;20173;-95
2023/06/18 01:45:54;;;;;;;53.92;25.30;;;;;;;;;;4859998;29;20136;-93
2023/06/18 01:48:22;;;;;;;54.40;25.38;;;;;;;;;;4859827;29;20119;-94
2023/06/18 01:50:58;;;;;;;55.45;25.70;;;;;;;;;;4849824;29;20162;-93
2023/06/18 01:53:26;;;;;;;49.25;25.45;;;;;;;;;;4859736;29;20582;-95
2023/06/18 01:55:53;;;;;;;53.42;25.00;;;;;;;;;;4853427;29;20108;-94
2023/06/18 01:58:21;;;;;;;56.15;24.88;;;;;;;;;;4864550;29;20032;-94
2023/06/18 02:00:48;;;;;;;53.40;24.77;;;;;;;;;;4861183;29;20742;-95
2023/06/18 02:03:15;;;;;;;60.55;26.02;;;;;;;;;;4844516;29;20060;-94
2023/06/18 02:05:51;;;;;;;49.55;24.88;;;;;;;;;;4860469;29;20037;-94
2023/06/18 02:08:17;;;;;;;47.67;24.10;;;;;;;;;;4856103;29;20072;-94
2023/06/18 02:10:44;;;;;;;53.55;24.83;;;;;;;;;;4848595;29;20029;-95
2023/06/18 02:13:10;;;;;;;54.92;25.50;;;;;;;;;;4840346;29;20060;-95
2023/06/18 02:15:38;;;;;;;50.55;24.00;;;;;;;;;;4863033;29;20035;-94
2023/06/18 02:18:05;;;;;;;55.30;25.55;;;;;;;;;;4842541;29;20049;-94
2023/06/18 02:20:31;;;;;;;53.53;24.45;;;;;;;;;;4857973;29;20476;-94
2023/06/18 02:22:58;;;;;;;49.95;22.88;;;;;;;;;;4850306;29;20058;-95
2023/06/18 02:25:29;;;;;;;48.20;22.63;;;;;;;;;;4839083;29;20132;-94
2023/06/18 02:27:59;;;;;;;43.92;20.80;;;;;;;;;;4835885;29;20037;-94
2023/06/18 02:30:29;;;;;;;46.85;20.58;;;;;;;;;;4862413;29;20097;-94
2023/06/18 02:32:55;;;;;;;42.88;20.13;;;;;;;;;;4844453;29;20530;-95
2023/06/18 02:35:22;;;;;;;82.00;21.33;;;;;;;;;;4857105;29;20061;-95
2023/06/18 02:37:48;;;;;;;89.35;21.52;;;;;;;;;;4858923;29;20037;-95
2023/06/18 02:40:20;;;;;;;104.28;21.08;;;;;;;;;;4872672;29;20033;-95
2023/06/18 02:42:48;;;;;;;115.78;23.63;;;;;;;;;;4866738;29;20052;-95
2023/06/18 02:45:25;;;;;;;98.25;21.60;;;;;;;;;;4855048;29;20040;-95
2023/06/18 02:47:52;;;;;;;108.07;22.17;;;;;;;;;;4857812;29;20280;-95
2023/06/18 02:50:18;;;;;;;79.63;24.73;;;;;;;;;;4840013;29;20472;-94
2023/06/18 02:52:46;;;;;;;134.85;24.63;;;;;;;;;;4837719;29;20121;-94
2023/06/18 02:55:13;;;;;;;77.22;24.77;;;;;;;;;;4856387;29;20045;-93
2023/06/18 02:57:40;;;;;;;85.75;24.27;;;;;;;;;;4856465;29;20038;-95
2023/06/18 03:00:26;;;;;;;81.18;25.27;;;;;;;;;;4842183;29;20617;-95
2023/06/18 03:02:55;;;;;;;78.80;24.15;;;;;;;;;;4858779;29;20048;-94
2023/06/18 03:05:21;;;;;;;71.80;26.00;;;;;;;;;;4846542;29;20032;-94
2023/06/18 03:07:48;;;;;;;78.00;23.85;;;;;;;;;;4846956;29;20041;-96
2023/06/18 03:10:18;;;;;;;55.20;23.55;;;;;;;;;;4842668;29;20136;-95
2023/06/18 03:12:44;;;;;;;61.22;24.83;;;;;;;;;;4864326;29;20486;-95
2023/06/18 03:15:13;;;;;;;50.97;24.98;;;;;;;;;;4847880;29;20029;-94
2023/06/18 03:17:39;;;;;;;57.80;23.33;;;;;;;;;;4860021;29;20491;-94
2023/06/18 03:20:07;;;;;;;72.82;24.25;;;;;;;;;;4842587;29;20108;-95
2023/06/18 03:22:33;;;;;;;71.60;22.52;;;;;;;;;;4852740;29;20498;-95
2023/06/18 03:25:00;;;;;;;44.08;23.42;;;;;;;;;;4846659;29;20052;-96
2023/06/18 03:27:27;;;;;;;44.40;22.25;;;;;;;;;;4865598;29;20096;-96
2023/06/18 03:29:55;;;;;;;58.47;23.15;;;;;;;;;;4847186;29;20047;-96
2023/06/18 03:32:22;;;;;;;76.18;21.88;;;;;;;;;;4846484;29;20048;-94
2023/06/18 03:34:48;;;;;;;67.38;24.42;;;;;;;;;;4845740;29;20333;-94
2023/06/18 03:37:17;;;;;;;53.95;22.88;;;;;;;;;;4845085;29;20025;-94
2023/06/18 03:39:43;;;;;;;49.92;23.38;;;;;;;;;;4855352;29;20125;-94
2023/06/18 03:42:10;;;;;;;61.00;24.10;;;;;;;;;;4844436;29;20045;-95
2023/06/18 03:44:36;;;;;;;59.85;23.88;;;;;;;;;;4864250;29;20032;-95
2023/06/18 03:47:02;;;;;;;76.20;24.17;;;;;;;;;;4842513;29;20042;-94
2023/06/18 03:49:28;;;;;;;61.42;23.75;;;;;;;;;;4839106;29;20041;-95
2023/06/18 03:52:00;;;;;;;59.95;24.67;;;;;;;;;;4852484;29;20093;-95
2023/06/18 03:54:33;;;;;;;63.83;24.58;;;;;;;;;;4862257;29;20421;-95
2023/06/18 03:57:06;;;;;;;79.57;23.55;;;;;;;;;;4851227;29;20060;-96
2023/06/18 03:59:33;;;;;;;55.22;24.02;;;;;;;;;;4860132;29;20545;-95
2023/06/18 04:02:00;;;;;;;63.08;24.23;;;;;;;;;;4866879;29;20109;-96
2023/06/18 04:04:26;;;;;;;85.45;24.67;;;;;;;;;;4847121;29;20056;-94
2023/06/18 04:06:52;;;;;;;59.65;23.80;;;;;;;;;;4839200;29;20045;-95
2023/06/18 04:09:19;;;;;;;67.75;22.75;;;;;;;;;;4847427;29;20033;-94
2023/06/18 04:11:45;;;;;;;66.88;21.70;;;;;;;;;;4840066;29;20525;-95
2023/06/18 04:14:12;;;;;;;54.40;20.05;;;;;;;;;;4861413;29;20582;-95
2023/06/18 04:16:38;;;;;;;86.78;21.55;;;;;;;;;;4852917;29;20471;-94
2023/06/18 04:19:04;;;;;;;72.50;21.38;;;;;;;;;;4862027;29;20037;-95
2023/06/18 04:21:31;;;;;;;75.65;21.17;;;;;;;;;;4856849;29;20064;-95
2023/06/18 04:23:57;;;;;;;57.28;21.13;;;;;;;;;;4874361;29;20094;-94
2023/06/18 04:26:26;;;;;;;65.68;21.80;;;;;;;;;;4838929;29;20127;-95
2023/06/18 04:28:52;;;;;;;61.50;19.50;;;;;;;;;;4852708;29;20088;-95
2023/06/18 04:31:19;;;;;;;48.00;21.33;;;;;;;;;;4841171;29;20061;-95
2023/06/18 04:33:46;;;;;;;49.42;20.02;;;;;;;;;;4851683;29;20105;-95
2023/06/18 04:36:12;;;;;;;41.53;18.63;;;;;;;;;;4858821;29;20033;-95
2023/06/18 04:38:41;;;;;;;40.25;18.65;;;;;;;;;;4843145;29;20025;-95
2023/06/18 04:41:07;;;;;;;39.80;18.92;;;;;;;;;;4852674;29;20074;-95
2023/06/18 04:43:34;;;;;;;34.70;17.35;;;;;;;;;;4855510;29;20518;-95
2023/06/18 04:46:02;;;;;;;35.00;16.80;;;;;;;;;;4852929;29;20032;-94
2023/06/18 04:48:28;;;;;;;48.72;17.73;;;;;;;;;;4857217;29;20044;-95
2023/06/18 04:50:55;;;;;;;40.88;18.60;;;;;;;;;;4867217;29;20120;-94
2023/06/18 04:53:21;;;;;;;39.05;19.10;;;;;;;;;;4846301;29;20033;-95
2023/06/18 04:55:47;;;;;;;47.50;20.63;;;;;;;;;;4858039;29;20073;-94
2023/06/18 04:58:14;;;;;;;35.92;18.42;;;;;;;;;;4855260;29;20722;-95
2023/06/18 05:00:44;;;;;;;31.83;17.17;;;;;;;;;;4855318;29;20115;-94
2023/06/18 05:03:10;;;;;;;34.10;17.92;;;;;;;;;;4852647;29;20037;-94
2023/06/18 05:05:36;;;;;;;27.02;16.20;;;;;;;;;;4857674;29;20052;-96
2023/06/18 05:08:06;;;;;;;28.42;15.85;;;;;;;;;;4859146;29;20132;-95
2023/06/18 05:10:35;;;;;;;23.45;14.77;;;;;;;;;;4867541;29;20048;-95
2023/06/18 05:13:02;;;;;;;27.20;14.43;;;;;;;;;;4850926;29;20491;-95
2023/06/18 05:15:28;;;;;;;26.73;15.50;;;;;;;;;;4845787;29;20609;-95
2023/06/18 05:17:54;;;;;;;26.52;15.25;;;;;;;;;;4857637;29;20025;-95
2023/06/18 05:20:21;;;;;;;25.75;14.23;;;;;;;;;;4846100;29;20090;-94
2023/06/18 05:22:47;;;;;;;23.40;14.75;;;;;;;;;;4846674;29;20060;-95
2023/06/18 05:25:14;;;;;;;21.30;13.80;;;;;;;;;;4863012;29;20047;-95
2023/06/18 05:27:40;;;;;;;24.42;14.88;;;;;;;;;;4859246;29;20521;-95
2023/06/18 05:30:09;;;;;;;22.73;13.68;;;;;;;;;;4841963;29;20069;-95
2023/06/18 05:32:38;;;;;;;22.58;12.98;;;;;;;;;;4854833;29;20043;-95
2023/06/18 05:35:05;;;;;;;18.58;12.07;;;;;;;;;;4839382;29;20120;-95
2023/06/18 05:37:39;;;;;;;21.65;12.70;;;;;;;;;;4859000;29;20036;-94
2023/06/18 05:40:06;;;;;;;18.02;11.98;;;;;;;;;;4862807;29;20045;-95
2023/06/18 05:42:32;;;;;;;18.55;12.57;;;;;;;;;;4860484;29;20068;-95
2023/06/18 05:44:59;;;;;;;18.63;12.35;;;;;;;;;;4847890;29;20650;-94
2023/06/18 05:47:25;;;;;;;18.50;11.48;;;;;;;;;;4848735;29;20067;-94
2023/06/18 05:49:51;;;;;;;20.85;12.25;;;;;;;;;;4851916;29;20557;-95
2023/06/18 05:52:17;;;;;;;19.33;12.15;;;;;;;;;;4844647;29;20127;-95
2023/06/18 05:54:43;;;;;;;19.83;12.30;;;;;;;;;;4859652;29;20061;-95
2023/06/18 05:57:11;;;;;;;19.20;11.10;;;;;;;;;;4849985;29;20442;-92
2023/06/18 05:59:40;;;;;;;17.50;11.70;;;;;;;;;;4842713;29;20482;-95
2023/06/18 06:02:08;;;;;;;19.05;11.73;;;;;;;;;;4857692;29;20033;-94
2023/06/18 06:04:34;;;;;;;17.67;11.38;;;;;;;;;;4846097;29;20439;-95
2023/06/18 06:07:00;;;;;;;18.17;11.00;;;;;;;;;;4858694;29;20099;-95
2023/06/18 06:09:26;;;;;;;18.40;11.73;;;;;;;;;;4849697;29;20025;-95
2023/06/18 06:11:53;;;;;;;18.63;12.02;;;;;;;;;;4845031;29;20042;-95
2023/06/18 06:25:22;;;;;;;17.55;10.07;;;;;;;;;;5844724;22;8886018;-95
2023/06/18 06:27:48;;;;;;;15.60;10.82;;;;;;;;;;6169759;23;20027;-95
2023/06/18 06:30:14;;;;;;;16.95;10.65;;;;;;;;;;6193354;23;20095;-94
2023/06/18 06:32:41;;;;;;;14.85;10.35;;;;;;;;;;6169367;23;20016;-94
2023/06/18 06:35:07;;;;;;;16.80;11.10;;;;;;;;;;6195003;23;20027;-94
2023/06/18 06:37:33;;;;;;;17.45;11.55;;;;;;;;;;6193326;23;20004;-94
2023/06/18 06:40:00;;;;;;;16.25;10.73;;;;;;;;;;6169877;23;20430;-95
2023/06/18 06:42:26;;;;;;;16.27;11.18;;;;;;;;;;6167119;23;20004;-94
2023/06/18 06:44:52;;;;;;;19.13;11.25;;;;;;;;;;6219410;23;20100;-94
2023/06/18 06:47:19;;;;;;;15.35;10.52;;;;;;;;;;6168126;23;20011;-94
2023/06/18 06:49:45;;;;;;;17.67;11.77;;;;;;;;;;6193061;23;20015;-95
2023/06/18 06:52:11;;;;;;;15.60;10.63;;;;;;;;;;6167053;23;20302;-94
2023/06/18 06:54:38;;;;;;;15.63;11.15;;;;;;;;;;6193039;23;20012;-95
2023/06/18 06:57:04;;;;;;;14.77;11.15;;;;;;;;;;6168816;23;20018;-95
2023/06/18 06:59:32;;;;;;;14.68;10.95;;;;;;;;;;6169928;23;20009;-93
2023/06/18 07:01:59;;;;;;;16.27;10.77;;;;;;;;;;6167793;23;20318;-95
2023/06/18 07:04:26;;;;;;;14.85;10.93;;;;;;;;;;6168837;23;20020;-95
2023/06/18 07:06:53;;;;;;;15.82;11.07;;;;;;;;;;6167765;23;20005;-95
2023/06/18 07:09:19;;;;;;;16.42;11.88;;;;;;;;;;6167969;23;20015;-95
2023/06/18 07:11:45;;;;;;;18.70;12.13;;;;;;;;;;6166506;23;20016;-95
2023/06/18 07:14:11;;;;;;;16.08;11.13;;;;;;;;;;6168944;23;20024;-95
2023/06/18 07:16:41;;;;;;;18.90;11.32;;;;;;;;;;6166516;23;20019;-95
2023/06/18 07:19:07;;;;;;;16.38;11.48;;;;;;;;;;6169243;23;20008;-94
2023/06/18 07:21:33;;;;;;;15.90;11.25;;;;;;;;;;6167268;23;20008;-93
2023/06/18 07:24:09;;;;;;;19.50;11.43;;;;;;;;;;6219326;22;20462;-94
2023/06/18 07:26:42;;;;;;;19.10;11.35;;;;;;;;;;6161853;23;20020;-95
2023/06/18 07:29:08;;;;;;;17.73;12.80;;;;;;;;;;6162398;23;20237;-95
2023/06/18 07:31:35;;;;;;;17.95;12.52;;;;;;;;;;6185693;23;20041;-95
2023/06/18 07:34:08;;;;;;;19.08;12.25;;;;;;;;;;6164055;23;20091;-94
2023/06/18 07:36:34;;;;;;;23.05;11.93;;;;;;;;;;6163552;23;20013;-95
2023/06/18 07:39:02;;;;;;;17.23;11.95;;;;;;;;;;6162405;23;20013;-95
2023/06/18 07:41:28;;;;;;;19.88;13.85;;;;;;;;;;6187755;23;20015;-94
2023/06/18 07:43:54;;;;;;;17.00;12.30;;;;;;;;;;6164043;23;20062;-95
2023/06/18 07:46:21;;;;;;;15.30;11.52;;;;;;;;;;6162631;23;20020;-94
2023/06/18 07:48:47;;;;;;;18.58;11.82;;;;;;;;;;6162796;23;20072;-95
2023/06/18 07:51:13;;;;;;;20.50;12.10;;;;;;;;;;6164750;23;20023;-95
2023/06/18 07:53:39;;;;;;;16.38;11.45;;;;;;;;;;6164594;23;20065;-93
2023/06/18 07:56:13;;;;;;;17.00;11.00;;;;;;;;;;6163071;23;20009;-95
2023/06/18 07:58:39;;;;;;;19.02;12.63;;;;;;;;;;6187904;23;20011;-95
2023/06/18 08:01:06;;;;;;;19.15;12.60;;;;;;;;;;6163090;23;20149;-95
2023/06/18 08:03:32;;;;;;;18.45;12.32;;;;;;;;;;6164372;23;20023;-96
2023/06/18 08:06:02;;;;;;;16.48;12.18;;;;;;;;;;6166565;23;20043;-94
2023/06/18 08:08:29;;;;;;;20.48;12.35;;;;;;;;;;6217691;23;20008;-94
2023/06/18 08:10:55;;;;;;;18.95;13.02;;;;;;;;;;6165314;23;20044;-95
2023/06/18 08:13:26;;;;;;;17.55;12.23;;;;;;;;;;6187323;23;20485;-94
2023/06/18 08:15:52;;;;;;;17.52;11.55;;;;;;;;;;6189585;23;20056;-95
2023/06/18 08:18:19;;;;;;;21.52;12.45;;;;;;;;;;6189890;23;20342;-94
2023/06/18 08:20:45;;;;;;;17.67;12.18;;;;;;;;;;6164414;23;20005;-95
2023/06/18 08:23:18;;;;;;;17.13;12.38;;;;;;;;;;6163731;22;20009;-95
2023/06/18 08:25:44;;;;;;;20.10;11.27;;;;;;;;;;6164367;23;20273;-94
2023/06/18 08:28:10;;;;;;;19.63;11.98;;;;;;;;;;6164076;23;20028;-96
2023/06/18 08:30:48;;;;;;;17.98;10.70;;;;;;;;;;6163864;23;20019;-95
2023/06/18 08:33:15;;;;;;;18.77;12.25;;;;;;;;;;6185346;23;20350;-94
2023/06/18 08:35:41;;;;;;;22.92;11.30;;;;;;;;;;6188387;23;20000;-96
2023/06/18 08:38:07;;;;;;;21.35;12.10;;;;;;;;;;6163039;23;20008;-94
2023/06/18 08:40:49;;;;;;;15.00;10.07;;;;;;;;;;6163427;23;20402;-94
2023/06/18 08:43:21;;;;;;;16.65;11.27;;;;;;;;;;6189541;23;20009;-96
2023/06/18 08:45:54;;;;;;;18.35;11.23;;;;;;;;;;6165862;23;20494;-96
2023/06/18 08:48:21;;;;;;;14.25;10.57;;;;;;;;;;6187135;23;20382;-94
2023/06/18 08:50:47;;;;;;;18.05;11.52;;;;;;;;;;6159684;23;20465;-96
2023/06/18 08:53:18;;;;;;;16.70;11.27;;;;;;;;;;6162579;23;20316;-96
2023/06/18 08:55:47;;;;;;;15.43;10.35;;;;;;;;;;6185707;23;20580;-95
2023/06/18 08:58:18;;;;;;;15.43;10.40;;;;;;;;;;6160351;23;20325;-94
2023/06/18 09:00:48;;;;;;;15.45;11.20;;;;;;;;;;6183318;23;20396;-96
2023/06/18 09:03:20;;;;;;;18.35;11.38;;;;;;;;;;6185579;23;20008;-95
2023/06/18 09:05:46;;;;;;;16.33;10.73;;;;;;;;;;6164097;23;20016;-96
2023/06/18 09:08:13;;;;;;;15.80;10.93;;;;;;;;;;6159619;23;20344;-96
2023/06/18 09:10:39;;;;;;;16.95;11.13;;;;;;;;;;6159764;23;20581;-96
2023/06/18 09:13:05;;;;;;;17.35;12.05;;;;;;;;;;6183455;23;20016;-96
2023/06/18 09:15:32;;;;;;;12.95;9.63;;;;;;;;;;6163536;23;20031;-96
2023/06/18 09:17:59;;;;;;;18.33;10.20;;;;;;;;;;6161968;23;20461;-95
2023/06/18 09:20:29;;;;;;;15.20;9.90;;;;;;;;;;6191366;23;20123;-96
2023/06/18 09:22:56;;;;;;;16.88;9.82;;;;;;;;;;6160939;23;20066;-96
2023/06/18 09:25:25;;;;;;;13.48;9.10;;;;;;;;;;6187010;22;20021;-96
2023/06/18 09:27:56;;;;;;;14.88;9.73;;;;;;;;;;6158684;23;20035;-96
2023/06/18 09:30:26;;;;;;;12.88;8.95;;;;;;;;;;6129669;23;20106;-95
2023/06/18 09:32:57;;;;;;;11.93;8.82;;;;;;;;;;6155074;23;20008;-96
2023/06/18 09:35:24;;;;;;;13.45;8.82;;;;;;;;;;6155156;23;20005;-95
2023/06/18 09:37:50;;;;;;;13.05;9.13;;;;;;;;;;6154950;23;20005;-96
2023/06/18 09:40:25;;;;;;;12.80;8.40;;;;;;;;;;6131931;23;20009;-95
2023/06/18 09:42:52;;;;;;;16.50;9.00;;;;;;;;;;6159727;23;20013;-96
2023/06/18 09:45:20;;;;;;;11.90;8.98;;;;;;;;;;6132432;23;20020;-96
2023/06/18 09:47:50;;;;;;;12.25;8.20;;;;;;;;;;6157070;23;20443;-95
2023/06/18 09:50:17;;;;;;;10.80;8.30;;;;;;;;;;6156199;23;20016;-95
2023/06/18 09:52:44;;;;;;;13.68;8.23;;;;;;;;;;6133334;23;20024;-95
2023/06/18 09:55:38;;;;;;;12.13;8.02;;;;;;;;;;6161601;23;20001;-95
2023/06/18 09:58:06;;;;;;;13.50;7.47;;;;;;;;;;6155646;23;20012;-95
2023/06/18 10:00:32;;;;;;;9.77;6.82;;;;;;;;;;6137080;23;20009;-96
2023/06/18 10:03:08;;;;;;;15.25;7.95;;;;;;;;;;6134790;23;20013;-96
2023/06/18 10:05:35;;;;;;;14.02;7.72;;;;;;;;;;6163016;23;20415;-95
2023/06/18 10:08:03;;;;;;;12.65;7.70;;;;;;;;;;6166365;23;20009;-96
2023/06/18 10:10:31;;;;;;;9.30;7.90;;;;;;;;;;6166068;23;20013;-95
2023/06/18 10:12:59;;;;;;;11.02;7.93;;;;;;;;;;6165008;23;20036;-94
2023/06/18 10:15:26;;;;;;;9.90;7.70;;;;;;;;;;6166493;23;20013;-96
2023/06/18 10:17:54;;;;;;;11.15;7.50;;;;;;;;;;6170404;23;20008;-94
2023/06/18 10:20:25;;;;;;;8.98;7.18;;;;;;;;;;6170138;23;20009;-95
2023/06/18 10:23:10;;;;;;;14.50;7.30;;;;;;;;;;6164443;23;20013;-95
2023/06/18 10:25:36;;;;;;;8.32;7.07;;;;;;;;;;6136675;23;20502;-95
2023/06/18 10:28:03;;;;;;;11.05;7.68;;;;;;;;;;6133076;23;20009;-96
2023/06/18 10:30:29;;;;;;;10.80;7.00;;;;;;;;;;6134444;23;20064;-94
2023/06/18 10:32:58;;;;;;;9.40;6.18;;;;;;;;;;6134975;23;20023;-96
2023/06/18 10:35:25;;;;;;;9.40;7.15;;;;;;;;;;6135364;23;20040;-95
2023/06/18 10:37:54;;;;;;;8.45;5.85;;;;;;;;;;6155706;23;20013;-94
2023/06/18 10:40:20;;;;;;;11.10;7.25;;;;;;;;;;6131732;23;20136;-94
2023/06/18 10:42:50;;;;;;;7.57;6.78;;;;;;;;;;6155795;23;20364;-95
2023/06/18 10:45:17;;;;;;;7.43;6.13;;;;;;;;;;6154857;23;20020;-95
2023/06/18 10:47:44;;;;;;;11.05;6.22;;;;;;;;;;6154027;23;20343;-95
2023/06/18 10:50:12;;;;;;;7.90;6.00;;;;;;;;;;6153858;23;20009;-95
2023/06/18 10:52:39;;;;;;;8.35;6.60;;;;;;;;;;6132312;23;20020;-95
2023/06/18 10:55:08;;;;;;;9.35;6.30;;;;;;;;;;6155517;23;20450;-96
2023/06/18 10:57:38;;;;;;;8.00;6.82;;;;;;;;;;6155404;23;20435;-95
2023/06/18 11:00:29;;;;;;;7.95;6.07;;;;;;;;;;6155063;23;20009;-96
2023/06/18 11:03:00;;;;;;;11.63;6.43;;;;;;;;;;6157391;23;20012;-95
2023/06/18 11:05:45;;;;;;;11.25;6.18;;;;;;;;;;6155466;23;20459;-95
2023/06/18 11:08:13;;;;;;;8.18;6.30;;;;;;;;;;6157108;23;20100;-96
2023/06/18 11:10:41;;;;;;;8.38;6.43;;;;;;;;;;6155205;23;20009;-94
2023/06/18 11:13:08;;;;;;;7.65;6.13;;;;;;;;;;6154642;23;20466;-96
2023/06/18 11:15:35;;;;;;;9.02;6.35;;;;;;;;;;6132420;23;20099;-96
2023/06/18 11:18:04;;;;;;;7.78;6.93;;;;;;;;;;6156148;23;20006;-95
2023/06/18 11:20:35;;;;;;;8.77;6.07;;;;;;;;;;6133137;23;20064;-95
2023/06/18 11:23:02;;;;;;;8.50;6.28;;;;;;;;;;6156600;23;20059;-95
2023/06/18 11:25:29;;;;;;;10.80;6.32;;;;;;;;;;6157404;23;20352;-96
2023/06/18 11:27:58;;;;;;;11.65;6.55;;;;;;;;;;6156474;23;20515;-96
2023/06/18 11:30:25;;;;;;;9.05;6.60;;;;;;;;;;6156848;23;20091;-95
2023/06/18 11:32:55;;;;;;;9.13;6.95;;;;;;;;;;6155443;23;20395;-95
2023/06/18 11:35:24;;;;;;;9.55;6.38;;;;;;;;;;6130997;23;20013;-95
2023/06/18 11:37:50;;;;;;;9.70;6.85;;;;;;;;;;6156529;23;20005;-96
2023/06/18 11:40:16;;;;;;;10.82;6.50;;;;;;;;;;6156562;23;20028;-94
2023/06/18 11:42:50;;;;;;;9.80;6.50;;;;;;;;;;6156049;23;20013;-95
2023/06/18 11:45:16;;;;;;;9.15;6.82;;;;;;;;;;6155733;23;20020;-96
2023/06/18 11:47:47;;;;;;;6.07;5.43;;;;;;;;;;6155570;23;20463;-94
2023/06/18 11:50:14;;;;;;;10.90;7.38;;;;;;;;;;6155573;23;20064;-95
2023/06/18 11:52:41;;;;;;;9.98;6.05;;;;;;;;;;6154756;23;20013;-95
2023/06/18 11:55:08;;;;;;;9.60;6.45;;;;;;;;;;6131779;23;20017;-95
2023/06/18 11:57:34;;;;;;;11.40;6.75;;;;;;;;;;6155522;23;20544;-94
2023/06/18 12:00:06;;;;;;;7.97;6.78;;;;;;;;;;6157228;23;20056;-95
2023/06/18 12:02:32;;;;;;;8.10;5.85;;;;;;;;;;6130363;23;20499;-95
2023/06/18 12:05:02;;;;;;;12.00;7.07;;;;;;;;;;6154396;23;20357;-94
2023/06/18 12:07:29;;;;;;;7.78;6.05;;;;;;;;;;6131165;23;20017;-94
2023/06/18 12:09:58;;;;;;;9.07;6.05;;;;;;;;;;6155604;23;20013;-96
2023/06/18 12:12:50;;;;;;;7.40;6.00;;;;;;;;;;6154749;23;20011;-95
2023/06/18 12:15:23;;;;;;;8.40;6.53;;;;;;;;;;6156328;23;20009;-96
2023/06/18 12:17:52;;;;;;;7.97;5.90;;;;;;;;;;6155158;23;20012;-94
2023/06/18 12:20:27;;;;;;;8.52;6.60;;;;;;;;;;6154619;23;20005;-96
2023/06/18 12:23:01;;;;;;;8.35;6.15;;;;;;;;;;6155248;23;20024;-94
2023/06/18 12:25:28;;;;;;;8.23;6.70;;;;;;;;;;6131815;23;20028;-94
2023/06/18 12:27:55;;;;;;;8.40;6.43;;;;;;;;;;6154233;23;20508;-95
2023/06/18 12:30:33;;;;;;;10.73;6.75;;;;;;;;;;6158291;23;20015;-94
2023/06/18 12:33:03;;;;;;;10.90;7.82;;;;;;;;;;6155212;23;20016;-94
2023/06/18 12:35:30;;;;;;;8.65;7.05;;;;;;;;;;6156713;23;20499;-95
2023/06/18 12:38:00;;;;;;;7.00;6.30;;;;;;;;;;6131080;23;20013;-94
2023/06/18 12:40:29;;;;;;;10.70;6.78;;;;;;;;;;6155097;23;20013;-94
2023/06/18 12:42:55;;;;;;;7.85;6.32;;;;;;;;;;6155847;23;20017;-94
2023/06/18 12:45:26;;;;;;;10.10;7.28;;;;;;;;;;6132892;23;20009;-95
2023/06/18 12:47:52;;;;;;;9.57;6.72;;;;;;;;;;6154349;23;20444;-95
2023/06/18 12:50:24;;;;;;;10.48;6.63;;;;;;;;;;6154906;23;20013;-94
2023/06/18 12:52:51;;;;;;;11.77;6.40;;;;;;;;;;6155118;23;20028;-94
2023/06/18 12:55:18;;;;;;;11.25;6.55;;;;;;;;;;6130492;23;20016;-94
2023/06/18 12:57:54;;;;;;;9.70;7.28;;;;;;;;;;6130613;23;20076;-94
2023/06/18 13:00:24;;;;;;;11.07;6.57;;;;;;;;;;6154984;23;20009;-94
2023/06/18 13:02:51;;;;;;;7.90;6.75;;;;;;;;;;6155113;23;20455;-96
2023/06/18 13:05:22;;;;;;;8.15;6.50;;;;;;;;;;6153660;23;20418;-94
2023/06/18 13:07:52;;;;;;;7.47;6.07;;;;;;;;;;6129508;23;20017;-94
2023/06/18 13:10:22;;;;;;;11.25;6.90;;;;;;;;;;6154661;23;20059;-94
2023/06/18 13:12:49;;;;;;;13.00;6.47;;;;;;;;;;6155419;23;20342;-94
2023/06/18 13:15:16;;;;;;;11.95;7.18;;;;;;;;;;6132623;23;20289;-94
2023/06/18 13:17:42;;;;;;;8.80;6.80;;;;;;;;;;6130336;23;20014;-94
2023/06/18 13:20:10;;;;;;;8.45;6.40;;;;;;;;;;6155306;23;20008;-94
2023/06/18 13:22:39;;;;;;;9.65;6.65;;;;;;;;;;6156173;23;20009;-94
2023/06/18 13:25:17;;;;;;;9.77;6.03;;;;;;;;;;6154918;23;20021;-93
2023/06/18 13:27:44;;;;;;;8.40;7.15;;;;;;;;;;6130899;23;20017;-94
2023/06/18 13:30:10;;;;;;;8.77;6.32;;;;;;;;;;6130654;23;20111;-94
2023/06/18 13:32:41;;;;;;;8.65;6.32;;;;;;;;;;6130685;23;20543;-93
2023/06/18 13:35:07;;;;;;;7.95;6.55;;;;;;;;;;6130196;23;20490;-93
2023/06/18 13:37:34;;;;;;;8.23;6.35;;;;;;;;;;6131136;23;20017;-95
2023/06/18 13:40:03;;;;;;;9.23;6.55;;;;;;;;;;6155630;23;20009;-94
2023/06/18 13:42:41;;;;;;;10.88;6.60;;;;;;;;;;6132795;23;20005;-93
2023/06/18 13:45:09;;;;;;;9.68;6.40;;;;;;;;;;6159076;23;20005;-94
2023/06/18 13:47:56;;;;;;;8.00;5.97;;;;;;;;;;6133468;23;20096;-93
2023/06/18 13:50:22;;;;;;;8.15;6.57;;;;;;;;;;6145073;23;20005;-93
2023/06/18 13:52:49;;;;;;;11.77;6.53;;;;;;;;;;6156840;23;20060;-95
2023/06/18 13:55:19;;;;;;;7.85;6.55;;;;;;;;;;6132542;23;20352;-91
2023/06/18 13:57:45;;;;;;;9.02;5.63;;;;;;;;;;6132775;23;20013;-91
2023/06/18 14:00:15;;;;;;;7.55;5.80;;;;;;;;;;6129437;23;20005;-95
2023/06/18 14:02:42;;;;;;;9.57;6.72;;;;;;;;;;6140770;23;20008;-96
2023/06/18 14:05:09;;;;;;;9.10;6.80;;;;;;;;;;6135613;23;20013;-94
2023/06/18 14:07:35;;;;;;;11.00;7.82;;;;;;;;;;6161780;23;20005;-94
2023/06/18 14:10:11;;;;;;;8.27;6.38;;;;;;;;;;6162513;23;20009;-95
2023/06/18 14:12:38;;;;;;;8.32;6.70;;;;;;;;;;6143014;23;20017;-94
2023/06/18 14:15:06;;;;;;;9.93;6.03;;;;;;;;;;6189563;23;20015;-94
2023/06/18 14:17:46;;;;;;;9.30;6.22;;;;;;;;;;6141894;23;20005;-94
2023/06/18 14:20:18;;;;;;;8.65;6.55;;;;;;;;;;6168716;23;20005;-96
2023/06/18 14:22:57;;;;;;;8.82;6.40;;;;;;;;;;6143215;23;20065;-95
2023/06/18 14:25:24;;;;;;;8.18;6.47;;;;;;;;;;6171615;22;20555;-94
2023/06/18 14:27:53;;;;;;;9.30;6.22;;;;;;;;;;6144178;23;20036;-96
2023/06/18 14:33:05;;;;;;;10.63;6.70;;;;;;;;;;6172548;23;20044;-96
2023/06/18 14:35:35;;;;;;;10.13;6.60;;;;;;;;;;6142896;23;20028;-95
2023/06/18 14:38:01;;;;;;;9.27;6.82;;;;;;;;;;6138683;23;20450;-94
2023/06/18 14:40:28;;;;;;;7.70;5.75;;;;;;;;;;6164393;23;20071;-95
2023/06/18 14:42:57;;;;;;;12.25;6.53;;;;;;;;;;6167709;23;20013;-96
2023/06/18 14:45:27;;;;;;;8.05;6.40;;;;;;;;;;6141523;23;20044;-95
2023/06/18 14:47:53;;;;;;;7.55;5.38;;;;;;;;;;6143443;23;20013;-95